createdAt,value
2022-08-30T00:02:00.793Z,14.07
2022-08-30T00:04:27.987Z,14.06
2022-08-30T00:06:54.945Z,14.12
2022-08-30T00:09:22.055Z,14.13
2022-08-30T00:11:52.036Z,14.39
2022-08-30T00:14:20.298Z,14.64
2022-08-30T00:16:47.312Z,14.77
2022-08-30T00:19:14.782Z,14.85
2022-08-30T00:21:41.764Z,14.90
2022-08-30T00:24:08.938Z,14.95
2022-08-30T00:26:35.923Z,14.97
2022-08-30T00:29:03.908Z,14.94
2022-08-30T00:31:30.941Z,14.91
2022-08-30T00:33:58.015Z,14.95
2022-08-30T00:36:24.984Z,14.92
2022-08-30T00:38:51.937Z,14.84
2022-08-30T00:41:18.922Z,14.89
2022-08-30T00:43:45.902Z,14.87
2022-08-30T00:46:12.982Z,14.72
2022-08-30T00:48:45.168Z,14.61
2022-08-30T00:51:14.508Z,14.73
2022-08-30T00:53:49.141Z,14.79
2022-08-30T00:56:17.861Z,14.86
2022-08-30T00:58:52.324Z,14.87
2022-08-30T01:01:20.645Z,14.63
2022-08-30T01:03:48.898Z,14.42
2022-08-30T01:06:17.037Z,14.10
2022-08-30T01:08:47.234Z,13.82
2022-08-30T01:11:21.548Z,13.98
2022-08-30T01:13:51.278Z,14.01
2022-08-30T01:16:19.121Z,14.18
2022-08-30T01:18:47.227Z,14.14
2022-08-30T01:22:00.096Z,14.22
2022-08-30T01:24:27.925Z,13.96
2022-08-30T01:26:55.834Z,13.57
2022-08-30T01:29:25.712Z,13.50
2022-08-30T01:31:52.749Z,13.88
2022-08-30T01:34:19.917Z,13.68
2022-08-30T01:36:49.316Z,13.73
2022-08-30T01:39:18.804Z,13.58
2022-08-30T01:41:46.280Z,14.02
2022-08-30T01:44:14.759Z,14.19
2022-08-30T01:46:47.121Z,14.41
2022-08-30T01:49:23.108Z,14.47
2022-08-30T01:52:00.713Z,14.43
2022-08-30T01:54:36.956Z,14.26
2022-08-30T01:57:09.953Z,14.28
2022-08-30T01:59:39.703Z,13.92
2022-08-30T02:02:08.313Z,13.80
2022-08-30T02:04:36.715Z,13.70
2022-08-30T02:07:05.281Z,13.55
2022-08-30T02:09:32.594Z,13.50
2022-08-30T02:11:59.647Z,13.66
2022-08-30T02:14:27.491Z,13.63
2022-08-30T02:16:54.603Z,14.03
2022-08-30T02:19:21.673Z,13.73
2022-08-30T02:21:48.622Z,13.43
2022-08-30T02:24:15.760Z,13.24
2022-08-30T02:26:42.869Z,13.14
2022-08-30T02:29:09.874Z,13.32
2022-08-30T02:31:36.857Z,13.35
2022-08-30T02:34:04.417Z,13.40
2022-08-30T02:36:31.997Z,13.13
2022-08-30T02:38:59.091Z,13.48
2022-08-30T02:41:26.161Z,13.67
2022-08-30T02:43:58.325Z,13.62
2022-08-30T02:46:26.650Z,13.75
2022-08-30T02:48:56.129Z,13.96
2022-08-30T02:51:23.294Z,13.87
2022-08-30T02:53:50.390Z,13.95
2022-08-30T02:56:17.391Z,14.11
2022-08-30T02:58:45.161Z,14.00
2022-08-30T03:01:15.644Z,13.98
2022-08-30T03:03:46.910Z,14.13
2022-08-30T03:06:15.021Z,14.19
2022-08-30T03:08:42.700Z,14.20
2022-08-30T03:11:10.181Z,14.20
2022-08-30T03:13:37.786Z,13.95
2022-08-30T03:16:05.097Z,13.32
2022-08-30T03:18:33.534Z,13.53
2022-08-30T03:21:00.765Z,13.40
2022-08-30T03:23:27.769Z,13.82
2022-08-30T03:25:54.775Z,13.82
2022-08-30T03:28:21.770Z,14.01
2022-08-30T03:30:48.726Z,14.23
2022-08-30T03:33:16.003Z,14.22
2022-08-30T03:35:45.601Z,14.33
2022-08-30T03:38:12.688Z,14.37
2022-08-30T03:40:40.023Z,14.42
2022-08-30T03:43:07.472Z,14.50
2022-08-30T03:45:34.853Z,14.40
2022-08-30T03:48:02.467Z,14.44
2022-08-30T03:50:30.890Z,14.53
2022-08-30T03:53:00.982Z,14.44
2022-08-30T03:55:29.853Z,14.50
2022-08-30T03:57:57.470Z,14.58
2022-08-30T04:00:25.962Z,14.38
2022-08-30T04:02:52.942Z,14.08
2022-08-30T04:05:20.982Z,13.91
2022-08-30T04:07:47.991Z,13.92
2022-08-30T04:10:15.043Z,13.89
2022-08-30T04:12:45.068Z,14.08
2022-08-30T04:15:15.891Z,14.12
2022-08-30T04:17:43.142Z,14.21
2022-08-30T04:20:11.061Z,14.42
2022-08-30T04:22:38.104Z,14.47
2022-08-30T04:25:07.164Z,14.45
2022-08-30T04:27:34.919Z,14.58
2022-08-30T04:30:04.964Z,14.61
2022-08-30T04:32:34.949Z,14.91
2022-08-30T04:35:01.967Z,14.77
2022-08-30T04:37:29.064Z,14.69
2022-08-30T04:40:00.692Z,14.76
2022-08-30T04:42:32.123Z,14.88
2022-08-30T04:45:05.512Z,15.05
2022-08-30T04:47:33.001Z,15.09
2022-08-30T04:50:00.046Z,15.09
2022-08-30T04:52:28.547Z,15.35
2022-08-30T04:54:57.936Z,15.47
2022-08-30T04:57:27.181Z,15.23
2022-08-30T04:59:54.723Z,15.20
2022-08-30T05:02:22.196Z,15.33
2022-08-30T05:05:08.366Z,15.40
2022-08-30T05:07:35.835Z,15.31
2022-08-30T05:10:09.072Z,15.26
2022-08-30T05:12:38.767Z,15.52
2022-08-30T05:15:07.100Z,15.50
2022-08-30T05:17:34.114Z,15.54
2022-08-30T05:20:02.473Z,15.60
2022-08-30T05:22:29.481Z,15.65
2022-08-30T05:24:56.467Z,15.64
2022-08-30T05:27:23.421Z,15.51
2022-08-30T05:29:50.495Z,15.56
2022-08-30T05:32:19.005Z,15.84
2022-08-30T05:34:49.164Z,15.67
2022-08-30T05:37:18.456Z,15.91
2022-08-30T05:39:51.478Z,16.04
2022-08-30T05:42:20.029Z,16.26
2022-08-30T05:44:51.221Z,16.34
2022-08-30T05:47:18.710Z,16.01
2022-08-30T05:49:45.721Z,15.89
2022-08-30T05:52:15.395Z,16.06
2022-08-30T05:54:42.653Z,16.04
2022-08-30T05:57:09.656Z,16.08
2022-08-30T05:59:37.197Z,16.12
2022-08-30T06:02:05.180Z,16.11
2022-08-30T06:04:32.392Z,16.24
2022-08-30T06:06:59.391Z,16.29
2022-08-30T06:09:26.367Z,16.23
2022-08-30T06:11:53.447Z,16.17
2022-08-30T06:14:20.829Z,16.26
2022-08-30T06:16:48.644Z,16.38
2022-08-30T06:19:16.719Z,16.36
2022-08-30T06:21:48.989Z,16.28
2022-08-30T06:24:16.759Z,16.41
2022-08-30T06:26:46.918Z,16.39
2022-08-30T06:29:18.792Z,16.48
2022-08-30T06:31:46.014Z,16.45
2022-08-30T06:34:16.513Z,16.59
2022-08-30T06:36:43.554Z,16.68
2022-08-30T06:39:11.177Z,16.70
2022-08-30T06:41:41.210Z,16.84
2022-08-30T06:44:08.748Z,16.82
2022-08-30T06:46:38.919Z,16.75
2022-08-30T06:49:11.201Z,16.95
2022-08-30T06:51:39.960Z,16.80
2022-08-30T06:54:11.972Z,17.12
2022-08-30T06:56:55.230Z,17.24
2022-08-30T06:59:25.454Z,17.21
2022-08-30T07:01:55.217Z,17.39
2022-08-30T07:04:22.253Z,17.45
2022-08-30T07:06:49.267Z,17.34
2022-08-30T07:09:16.265Z,17.40
2022-08-30T07:11:43.437Z,17.41
2022-08-30T07:14:10.766Z,17.34
2022-08-30T07:16:37.767Z,17.38
2022-08-30T07:19:06.579Z,17.55
2022-08-30T07:21:46.071Z,17.51
2022-08-30T07:24:13.633Z,17.55
2022-08-30T07:26:48.825Z,17.57
2022-08-30T07:29:17.812Z,17.42
2022-08-30T07:31:45.539Z,17.67
2022-08-30T07:34:12.561Z,17.64
2022-08-30T07:36:40.094Z,17.74
2022-08-30T07:39:07.747Z,17.52
2022-08-30T07:41:38.801Z,17.76
2022-08-30T07:44:08.203Z,17.79
2022-08-30T07:46:39.052Z,17.90
2022-08-30T07:49:11.003Z,17.80
2022-08-30T07:51:40.010Z,17.94
2022-08-30T07:54:07.421Z,17.97
2022-08-30T07:56:35.200Z,17.90
2022-08-30T07:59:02.163Z,17.97
2022-08-30T08:01:29.231Z,18.02
2022-08-30T08:03:56.308Z,18.00
2022-08-30T08:06:24.605Z,17.79
2022-08-30T08:08:53.596Z,17.97
2022-08-30T08:11:29.345Z,18.11
2022-08-30T08:13:58.733Z,18.28
2022-08-30T08:16:33.092Z,18.02
2022-08-30T08:19:00.594Z,17.99
2022-08-30T08:21:28.675Z,18.38
2022-08-30T08:23:56.076Z,18.15
2022-08-30T08:26:23.424Z,18.30
2022-08-30T08:28:50.460Z,18.45
2022-08-30T08:31:33.391Z,18.55
2022-08-30T08:34:05.441Z,18.66
2022-08-30T08:36:34.427Z,18.75
2022-08-30T08:39:03.539Z,18.66
2022-08-30T08:42:48.905Z,18.81
2022-08-30T08:45:56.428Z,18.63
2022-08-30T08:49:00.006Z,19.17
2022-08-30T08:51:52.272Z,19.01
2022-08-30T08:54:38.739Z,19.24
2022-08-30T08:57:05.836Z,19.07
2022-08-30T08:59:33.025Z,18.97
2022-08-30T09:02:08.177Z,19.30
2022-08-30T09:04:39.316Z,19.36
2022-08-30T09:07:24.331Z,19.29
2022-08-30T09:09:51.938Z,19.53
2022-08-30T09:12:19.440Z,19.48
2022-08-30T09:14:55.913Z,19.23
2022-08-30T09:17:23.681Z,19.43
2022-08-30T09:19:54.046Z,19.39
2022-08-30T09:22:42.507Z,19.03
2022-08-30T09:25:13.412Z,19.20
2022-08-30T09:27:47.408Z,19.22
2022-08-30T09:30:25.946Z,19.35
2022-08-30T09:32:59.481Z,18.98
2022-08-30T09:35:38.837Z,19.16
2022-08-30T09:38:35.789Z,19.52
2022-08-30T09:41:38.434Z,19.22
2022-08-30T09:44:16.931Z,19.35
2022-08-30T09:47:01.148Z,19.70
2022-08-30T09:49:44.376Z,19.54
2022-08-30T09:52:49.934Z,19.49
2022-08-30T09:55:55.806Z,19.44
2022-08-30T09:59:04.332Z,19.80
2022-08-30T10:01:43.547Z,20.35
2022-08-30T10:04:58.918Z,20.14
2022-08-30T10:07:58.849Z,19.86
2022-08-30T10:10:45.234Z,20.17
2022-08-30T10:14:05.636Z,20.02
2022-08-30T10:17:12.764Z,19.94
2022-08-30T10:20:03.693Z,20.02
2022-08-30T10:22:48.696Z,19.64
2022-08-30T10:25:44.074Z,20.20
2022-08-30T10:28:16.946Z,20.19
2022-08-30T10:30:59.600Z,20.94
2022-08-30T10:33:39.086Z,20.66
2022-08-30T10:36:12.377Z,20.69
2022-08-30T10:38:52.188Z,20.59
2022-08-30T10:41:50.670Z,20.74
2022-08-30T10:44:37.461Z,20.64
2022-08-30T10:47:39.361Z,20.71
2022-08-30T10:50:21.351Z,21.33
2022-08-30T10:53:00.194Z,21.83
2022-08-30T10:55:35.461Z,21.69
2022-08-30T10:58:06.370Z,20.83
2022-08-30T11:01:18.979Z,21.12
2022-08-30T11:04:23.705Z,21.15
2022-08-30T11:08:08.308Z,21.28
2022-08-30T11:11:15.986Z,21.83
2022-08-30T11:13:44.920Z,22.22
2022-08-30T11:16:19.040Z,23.22
2022-08-30T11:18:56.581Z,22.52
2022-08-30T11:21:36.192Z,23.19
2022-08-30T11:24:12.174Z,23.22
2022-08-30T11:26:45.951Z,22.52
2022-08-30T11:29:44.628Z,22.21
2022-08-30T11:32:17.177Z,22.92
2022-08-30T11:34:47.097Z,23.20
2022-08-30T11:37:52.201Z,23.81
2022-08-30T11:40:24.604Z,23.22
2022-08-30T11:42:55.610Z,23.46
2022-08-30T11:45:24.752Z,23.14
2022-08-30T11:48:10.052Z,23.75
2022-08-30T11:51:07.667Z,23.55
2022-08-30T11:54:26.964Z,23.22
2022-08-30T11:57:27.726Z,22.00
2022-08-30T12:00:37.256Z,23.45
2022-08-30T12:03:16.401Z,23.01
2022-08-30T12:05:44.224Z,23.00
2022-08-30T12:08:20.333Z,23.58
2022-08-30T12:11:02.319Z,23.75
2022-08-30T12:13:36.903Z,23.08
2022-08-30T12:16:25.062Z,22.93
2022-08-30T12:19:04.882Z,23.20
2022-08-30T12:21:44.977Z,22.96
2022-08-30T12:24:43.591Z,22.90
2022-08-30T12:27:33.218Z,22.99
2022-08-30T12:30:08.701Z,23.23
2022-08-30T12:32:48.765Z,22.65
2022-08-30T12:35:28.018Z,22.93
2022-08-30T12:38:12.283Z,23.04
2022-08-30T12:41:05.681Z,23.41
2022-08-30T12:43:47.612Z,23.35
2022-08-30T12:46:18.083Z,23.31
2022-08-30T12:48:45.964Z,22.56
2022-08-30T12:51:29.735Z,22.78
2022-08-30T12:54:27.881Z,22.83
2022-08-30T12:57:19.171Z,22.86
2022-08-30T13:00:01.685Z,23.04
2022-08-30T13:02:52.417Z,23.36
2022-08-30T13:05:44.996Z,22.97
2022-08-30T13:08:57.602Z,22.62
2022-08-30T13:11:29.642Z,22.85
2022-08-30T13:14:32.834Z,22.59
2022-08-30T13:17:29.507Z,22.49
2022-08-30T13:20:07.723Z,22.68
2022-08-30T13:23:09.910Z,22.35
2022-08-30T13:25:40.022Z,22.39
2022-08-30T13:28:07.981Z,22.50
2022-08-30T13:30:35.754Z,22.77
2022-08-30T13:33:03.161Z,22.01
2022-08-30T13:35:31.241Z,22.58
2022-08-30T13:38:01.503Z,22.60
2022-08-30T13:40:28.574Z,22.21
2022-08-30T13:42:57.118Z,21.64
2022-08-30T13:45:41.450Z,22.23
2022-08-30T13:48:11.344Z,22.03
2022-08-30T13:50:39.077Z,22.05
2022-08-30T13:53:06.233Z,21.70
2022-08-30T13:55:34.032Z,21.55
2022-08-30T13:58:02.068Z,21.44
2022-08-30T14:00:33.492Z,21.88
2022-08-30T14:03:03.470Z,21.72
2022-08-30T14:06:21.905Z,21.41
2022-08-30T14:08:49.018Z,21.31
2022-08-30T14:11:21.236Z,21.62
2022-08-30T14:16:46.774Z,21.42
2022-08-30T14:19:16.292Z,21.45
2022-08-30T14:21:46.659Z,21.46
2022-08-30T14:24:20.081Z,21.51
2022-08-30T14:26:52.019Z,20.95
2022-08-30T14:29:24.724Z,21.25
2022-08-30T14:31:54.889Z,21.54
2022-08-30T14:34:23.146Z,21.80
2022-08-30T14:36:52.576Z,21.68
2022-08-30T14:39:26.285Z,21.67
2022-08-30T14:41:55.808Z,21.61
2022-08-30T14:44:24.983Z,21.67
2022-08-30T14:46:55.578Z,21.85
2022-08-30T14:49:23.617Z,21.30
2022-08-30T14:51:51.953Z,21.52
2022-08-30T14:54:29.166Z,21.19
2022-08-30T14:56:56.822Z,21.57
2022-08-30T14:59:25.461Z,21.50
2022-08-30T15:01:53.115Z,21.65
2022-08-30T15:04:21.702Z,22.01
2022-08-30T15:06:50.975Z,21.79
2022-08-30T15:09:23.867Z,21.54
2022-08-30T15:11:58.818Z,21.58
2022-08-30T15:14:28.170Z,21.57
2022-08-30T15:16:56.165Z,21.91
2022-08-30T15:19:23.804Z,21.62
2022-08-30T15:21:51.430Z,21.59
2022-08-30T15:24:29.920Z,21.58
2022-08-30T15:26:59.518Z,21.71
2022-08-30T15:29:30.543Z,21.51
2022-08-30T15:32:00.995Z,21.35
2022-08-30T15:34:28.946Z,21.69
2022-08-30T15:36:57.413Z,21.76
2022-08-30T15:39:24.893Z,21.63
2022-08-30T15:41:55.967Z,21.64
2022-08-30T15:44:24.301Z,21.57
2022-08-30T15:46:51.440Z,21.68
2022-08-30T15:49:23.175Z,21.74
2022-08-30T15:51:54.123Z,21.81
2022-08-30T15:54:23.834Z,21.56
2022-08-30T15:56:58.798Z,21.63
2022-08-30T15:59:31.019Z,21.50
2022-08-30T16:01:58.704Z,21.53
2022-08-30T16:04:26.601Z,21.27
2022-08-30T16:07:03.747Z,21.16
2022-08-30T16:09:32.799Z,21.24
2022-08-30T16:12:02.268Z,21.28
2022-08-30T16:14:32.638Z,21.35
2022-08-30T16:17:09.932Z,21.37
2022-08-30T16:19:38.220Z,21.14
2022-08-30T16:22:12.918Z,21.44
2022-08-30T16:24:43.846Z,20.93
2022-08-30T16:27:14.031Z,21.21
2022-08-30T16:29:41.353Z,21.15
2022-08-30T16:32:08.738Z,20.87
2022-08-30T16:34:35.869Z,20.92
2022-08-30T16:37:04.245Z,20.95
2022-08-30T16:39:32.716Z,20.97
2022-08-30T16:42:03.146Z,20.93
2022-08-30T16:44:30.279Z,20.87
2022-08-30T16:46:57.447Z,20.84
2022-08-30T16:49:25.555Z,20.70
2022-08-30T16:51:56.157Z,20.68
2022-08-30T16:54:23.629Z,20.77
2022-08-30T16:56:51.628Z,20.54
2022-08-30T16:59:19.291Z,21.12
2022-08-30T17:01:46.543Z,20.96
2022-08-30T17:04:18.379Z,20.92
2022-08-30T17:06:49.535Z,20.60
2022-08-30T17:09:19.326Z,20.45
2022-08-30T17:11:47.702Z,20.56
2022-08-30T17:14:16.352Z,20.58
2022-08-30T17:16:50.358Z,20.36
2022-08-30T17:19:18.605Z,20.25
2022-08-30T17:21:54.147Z,20.40
2022-08-30T17:24:21.169Z,20.21
2022-08-30T17:26:49.003Z,20.08
2022-08-30T17:29:16.420Z,19.98
2022-08-30T17:31:46.448Z,19.73
2022-08-30T17:34:22.237Z,19.83
2022-08-30T17:37:02.429Z,20.05
2022-08-30T17:39:31.421Z,19.66
2022-08-30T17:41:58.715Z,19.58
2022-08-30T17:44:30.731Z,19.70
2022-08-30T17:47:00.047Z,19.61
2022-08-30T17:49:29.396Z,19.36
2022-08-30T17:51:59.064Z,19.56
2022-08-30T17:54:29.505Z,19.25
2022-08-30T17:56:58.440Z,19.19
2022-08-30T17:59:26.963Z,19.08
2022-08-30T18:01:58.739Z,18.95
2022-08-30T18:04:26.229Z,18.88
2022-08-30T18:06:55.136Z,18.82
2022-08-30T18:09:23.081Z,18.67
2022-08-30T18:11:50.758Z,18.70
2022-08-30T18:14:18.338Z,18.63
2022-08-30T18:16:49.975Z,18.56
2022-08-30T18:19:33.082Z,18.54
2022-08-30T18:22:00.376Z,18.57
2022-08-30T18:24:31.522Z,18.40
2022-08-30T18:26:58.744Z,18.30
2022-08-30T18:29:26.280Z,18.21
2022-08-30T18:31:58.398Z,18.16
2022-08-30T18:34:25.500Z,18.25
2022-08-30T18:36:52.943Z,18.16
2022-08-30T18:39:21.827Z,18.05
2022-08-30T18:41:50.967Z,18.09
2022-08-30T18:44:28.422Z,17.96
2022-08-30T18:46:58.209Z,17.89
2022-08-30T18:49:32.396Z,17.82
2022-08-30T18:52:02.241Z,17.74
2022-08-30T18:54:30.210Z,17.76
2022-08-30T18:56:57.559Z,17.65
2022-08-30T18:59:35.490Z,17.59
2022-08-30T19:02:09.456Z,17.54
2022-08-30T19:04:37.142Z,17.30
2022-08-30T19:07:08.197Z,16.87
2022-08-30T19:09:36.870Z,16.86
2022-08-30T19:12:09.662Z,16.95
2022-08-30T19:14:38.663Z,17.00
2022-08-30T19:17:07.039Z,17.07
2022-08-30T19:19:35.224Z,17.18
2022-08-30T19:22:04.718Z,17.27
2022-08-30T19:24:31.748Z,17.12
2022-08-30T19:26:59.567Z,17.06
2022-08-30T19:29:26.643Z,16.82
2022-08-30T19:31:53.814Z,16.95
2022-08-30T19:34:21.478Z,16.73
2022-08-30T19:36:49.050Z,16.80
2022-08-30T19:39:16.517Z,16.73
2022-08-30T19:41:44.598Z,16.59
2022-08-30T19:44:11.727Z,16.67
2022-08-30T19:46:38.706Z,16.84
2022-08-30T19:49:08.453Z,16.86
2022-08-30T19:51:39.558Z,16.77
2022-08-30T19:54:15.144Z,16.64
2022-08-30T19:56:42.223Z,16.61
2022-08-30T19:59:09.421Z,16.66
2022-08-30T20:01:37.767Z,16.71
2022-08-30T20:04:05.007Z,16.67
2022-08-30T20:06:33.337Z,16.52
2022-08-30T20:09:01.061Z,16.51
2022-08-30T20:11:29.610Z,16.54
2022-08-30T20:14:02.770Z,16.51
2022-08-30T20:16:36.098Z,16.48
2022-08-30T20:19:10.650Z,16.41
2022-08-30T20:21:38.820Z,16.29
2022-08-30T20:24:09.649Z,16.28
2022-08-30T20:26:38.760Z,16.27
2022-08-30T20:29:08.963Z,16.33
2022-08-30T20:31:36.647Z,16.03
2022-08-30T20:34:05.190Z,16.05
2022-08-30T20:36:33.944Z,16.00
2022-08-30T20:39:02.128Z,15.98
2022-08-30T20:41:30.679Z,16.02
2022-08-30T20:43:58.472Z,15.95
2022-08-30T20:46:26.441Z,15.87
2022-08-30T20:49:01.713Z,15.89
2022-08-30T20:51:29.396Z,15.98
2022-08-30T20:53:58.374Z,15.89
2022-08-30T20:56:27.753Z,15.84
2022-08-30T20:59:10.218Z,15.87
2022-08-30T21:01:38.967Z,15.77
2022-08-30T21:04:08.448Z,15.73
2022-08-30T21:06:37.573Z,15.71
2022-08-30T21:09:08.711Z,15.73
2022-08-30T21:11:37.514Z,15.61
2022-08-30T21:14:05.568Z,15.76
2022-08-30T21:16:33.304Z,15.64
2022-08-30T21:19:01.341Z,15.70
2022-08-30T21:21:30.606Z,15.61
2022-08-30T21:24:10.119Z,15.55
2022-08-30T21:26:42.924Z,15.57
2022-08-30T21:29:11.343Z,15.60
2022-08-30T21:31:38.787Z,15.61
2022-08-30T21:34:13.214Z,15.61
2022-08-30T21:36:45.688Z,15.54
2022-08-30T21:39:27.560Z,15.49
2022-08-30T21:41:56.914Z,15.68
2022-08-30T21:44:27.401Z,15.64
2022-08-30T21:46:55.474Z,15.49
2022-08-30T21:49:24.340Z,15.49
2022-08-30T21:51:54.694Z,15.54
2022-08-30T21:54:23.732Z,15.64
2022-08-30T21:56:54.212Z,15.58
2022-08-30T21:59:24.890Z,15.45
2022-08-30T22:01:52.125Z,15.47
2022-08-30T22:04:22.009Z,15.51
2022-08-30T22:06:53.776Z,15.35
2022-08-30T22:09:25.044Z,15.33
2022-08-30T22:11:53.506Z,15.44
2022-08-30T22:14:22.646Z,15.49
2022-08-30T22:16:50.084Z,15.44
2022-08-30T22:19:22.950Z,15.40
2022-08-30T22:21:51.556Z,15.31
2022-08-30T22:24:19.010Z,15.22
2022-08-30T22:26:47.403Z,15.20
2022-08-30T22:29:14.878Z,15.25
2022-08-30T22:31:43.587Z,15.21
2022-08-30T22:34:11.431Z,15.21
2022-08-30T22:36:39.066Z,15.11
2022-08-30T22:39:08.879Z,15.00
2022-08-30T22:41:37.137Z,15.07
2022-08-30T22:44:05.023Z,15.09
2022-08-30T22:46:34.018Z,14.99
2022-08-30T22:49:05.312Z,14.68
2022-08-30T22:51:33.649Z,14.52
2022-08-30T22:54:02.328Z,14.69
2022-08-30T22:56:30.756Z,14.67
2022-08-30T22:58:58.099Z,14.56
2022-08-30T23:01:39.097Z,14.43
2022-08-30T23:04:09.466Z,14.45
2022-08-30T23:06:36.943Z,14.52
2022-08-30T23:09:06.819Z,14.54
2022-08-30T23:11:34.186Z,14.30
2022-08-30T23:14:03.748Z,14.34
2022-08-30T23:16:32.396Z,14.32
2022-08-30T23:18:59.860Z,14.21
2022-08-30T23:21:30.256Z,14.26
2022-08-30T23:24:17.944Z,14.11
2022-08-30T23:27:04.839Z,14.19
2022-08-30T23:29:52.118Z,14.02
2022-08-30T23:32:38.988Z,14.04
2022-08-30T23:35:29.921Z,14.18
2022-08-30T23:38:23.264Z,14.04
2022-08-30T23:41:08.682Z,14.03
2022-08-30T23:43:55.699Z,13.94
2022-08-30T23:46:42.146Z,13.93
2022-08-30T23:49:27.770Z,13.91
2022-08-30T23:52:13.869Z,13.92
2022-08-30T23:54:59.873Z,13.86
2022-08-30T23:57:45.754Z,13.80
